Time;durP1;ratioP1;P1;durP2;ratioP2;P2;SDS_P1;SDS_P2;PMS_P1;PMS_P2;Temp;Humidity;BMP_temperature;BMP_pressure;BME280_temperature;BME280_humidity;BME280_pressure;Samples;Min_cycle;Max_cycle;Signal;HPM_P1;HPM_P2
2022/06/14 00:01:13;;;;;;;5.90;1.52;;;;;;;15.83;49.60;100550.19;4991189;28;20047;-57
2022/06/14 00:03:41;;;;;;;10.68;1.63;;;;;;;15.81;49.81;100541.47;4991300;28;20050;-55
2022/06/14 00:06:14;;;;;;;8.93;1.52;;;;;;;15.79;49.68;100548.69;4974123;28;20057;-55
2022/06/14 00:08:41;;;;;;;5.20;1.35;;;;;;;15.79;49.60;100556.66;4974083;28;20050;-56
2022/06/14 00:11:12;;;;;;;5.40;1.95;;;;;;;15.75;50.01;100546.22;4991379;28;20051;-58
2022/06/14 00:13:39;;;;;;;7.78;2.20;;;;;;;15.74;49.86;100538.38;4974064;28;20050;-59
2022/06/14 00:16:06;;;;;;;7.15;1.90;;;;;;;15.71;49.90;100542.09;4973787;28;20046;-56
2022/06/14 00:18:33;;;;;;;8.00;1.45;;;;;;;15.69;50.09;100546.63;4990064;28;20094;-54
2022/06/14 00:21:00;;;;;;;5.63;1.63;;;;;;;15.67;50.20;100553.00;4991190;28;20101;-55
2022/06/14 00:23:27;;;;;;;5.75;1.88;;;;;;;15.65;50.03;100550.44;4990985;28;20414;-58
2022/06/14 00:25:57;;;;;;;4.20;1.30;;;;;;;15.62;50.10;100550.63;4973788;28;20112;-57
2022/06/14 00:28:27;;;;;;;8.55;1.45;;;;;;;15.60;50.72;100548.13;4973691;28;20484;-55
2022/06/14 00:30:57;;;;;;;5.75;1.38;;;;;;;15.59;50.21;100558.81;4990963;28;20057;-55
2022/06/14 00:33:24;;;;;;;6.43;1.38;;;;;;;15.57;49.84;100558.91;4973904;28;20080;-55
2022/06/14 00:36:06;;;;;;;4.55;1.63;;;;;;;15.51;50.47;100548.69;4973733;28;20055;-56
2022/06/14 00:38:34;;;;;;;4.15;1.60;;;;;;;15.52;50.08;100558.38;4990924;28;20124;-60
2022/06/14 00:41:03;;;;;;;8.00;2.28;;;;;;;15.48;50.18;100555.03;4973634;28;20494;-58
2022/06/14 00:43:31;;;;;;;4.95;1.20;;;;;;;15.45;50.18;100555.28;4973524;28;20046;-55
2022/06/14 00:46:04;;;;;;;6.30;1.90;;;;;;;15.40;50.94;100557.34;4990932;28;20061;-55
2022/06/14 00:48:31;;;;;;;;;;;;;;;15.38;49.76;100556.59;4991238;28;20046;-58
2022/06/14 00:51:16;;;;;;;3.58;1.00;;;;;;;15.37;50.49;100563.69;4990861;28;19926;-55
2022/06/14 00:53:54;;;;;;;3.30;1.10;;;;;;;15.31;50.49;100552.63;4990816;28;20054;-56
2022/06/14 00:56:31;;;;;;;3.42;1.60;;;;;;;15.28;51.05;100563.47;4973849;28;20054;-55
2022/06/14 00:59:04;;;;;;;5.68;1.50;;;;;;;15.23;50.80;100564.59;4973457;28;20047;-57
2022/06/14 01:01:34;;;;;;;4.70;1.80;;;;;;;15.21;50.73;100569.13;4973452;28;20057;-56
2022/06/14 01:04:11;;;;;;;8.30;1.60;;;;;;;15.16;50.98;100563.28;4973362;28;20129;-59
2022/06/14 01:07:06;;;;;;;4.90;1.63;;;;;;;15.14;51.66;100570.47;4973566;28;20054;-56
2022/06/14 01:09:41;;;;;;;5.07;1.63;;;;;;;15.11;51.22;100563.56;4990599;28;20462;-56
2022/06/14 01:12:15;;;;;;;3.38;1.50;;;;;;;15.08;51.59;100552.31;4973618;28;20198;-57
2022/06/14 01:15:00;;;;;;;8.27;2.00;;;;;;;15.02;51.56;100564.16;4990782;28;20097;-56
2022/06/14 01:17:27;;;;;;;7.35;1.73;;;;;;;15.04;51.12;100567.56;4973532;28;20058;-57
2022/06/14 01:19:54;;;;;;;8.70;1.90;;;;;;;15.03;51.26;100565.84;4990587;28;20051;-56
2022/06/14 01:22:22;;;;;;;7.50;1.35;;;;;;;15.01;51.19;100569.53;4973204;28;20058;-56
2022/06/14 01:24:49;;;;;;;10.43;2.08;;;;;;;14.98;51.14;100558.19;4990624;28;20101;-53
2022/06/14 01:27:19;;;;;;;7.80;1.83;;;;;;;14.96;51.11;100564.53;4990506;28;20093;-59
2022/06/14 01:29:54;;;;;;;4.65;1.75;;;;;;;14.93;51.78;100557.66;4973405;28;20051;-53
2022/06/14 01:32:22;;;;;;;8.95;1.83;;;;;;;14.93;51.46;100562.06;4976770;28;20062;-59
2022/06/14 01:34:52;;;;;;;6.65;1.80;;;;;;;14.89;51.64;100556.13;4993948;28;20092;-59
2022/06/14 01:37:21;;;;;;;6.53;1.67;;;;;;;14.88;51.40;100559.69;4994049;28;20054;-56
2022/06/14 01:39:48;;;;;;;4.50;1.67;;;;;;;14.86;51.69;100558.97;4993602;28;20503;-57
2022/06/14 01:42:26;;;;;;;10.95;2.13;;;;;;;14.80;52.51;100560.19;4993933;28;20046;-54
2022/06/14 01:45:34;;;;;;;8.57;1.92;;;;;;;14.76;52.25;100553.38;4976601;28;20074;-57
2022/06/14 01:48:28;;;;;;;7.68;2.20;;;;;;;14.75;52.34;100551.66;4955210;28;20109;-59
2022/06/14 01:54:12;;;;;;;7.88;1.80;;;;;;;14.72;52.58;100547.38;4993556;28;20046;-59
2022/06/14 01:56:49;;;;;;;7.68;1.88;;;;;;;14.71;52.87;100542.19;4993962;28;20062;-59
2022/06/14 01:59:31;;;;;;;5.60;1.70;;;;;;;14.69;52.93;100536.13;4976151;28;20061;-55
2022/06/14 02:02:32;;;;;;;3.97;1.60;;;;;;;14.67;52.53;100536.22;4976127;28;20101;-55
2022/06/14 02:05:20;;;;;;;8.30;1.92;;;;;;;14.65;52.99;100531.97;4976462;28;20066;-56
2022/06/14 02:07:56;;;;;;;7.55;1.95;;;;;;;14.68;52.36;100535.28;4993544;28;20066;-58
2022/06/14 02:10:30;;;;;;;10.05;2.25;;;;;;;14.66;52.71;100541.63;4993247;28;20046;-58
2022/06/14 02:13:07;;;;;;;7.22;2.05;;;;;;;14.64;53.56;100546.16;4975975;28;20470;-56
2022/06/14 02:15:41;;;;;;;6.68;1.75;;;;;;;14.63;53.76;100553.25;4976104;28;20407;-58
2022/06/14 02:18:13;;;;;;;8.30;2.42;;;;;;;14.65;53.09;100561.13;4993060;28;20058;-56
2022/06/14 02:20:49;;;;;;;6.40;2.00;;;;;;;14.65;53.38;100559.31;4975969;28;20048;-57
2022/06/14 02:23:16;;;;;;;9.38;2.05;;;;;;;14.66;52.88;100555.69;4993141;28;20505;-57
2022/06/14 02:25:48;;;;;;;5.53;1.85;;;;;;;14.64;53.79;100559.38;4993479;28;20051;-53
2022/06/14 02:28:32;;;;;;;4.82;1.83;;;;;;;14.62;53.90;100548.06;4975725;28;20058;-58
2022/06/14 02:31:05;;;;;;;9.07;2.60;;;;;;;14.65;53.46;100556.66;4975448;28;20105;-59
2022/06/14 02:33:34;;;;;;;11.40;2.60;;;;;;;14.65;52.81;100551.34;4975599;28;20050;-60
2022/06/14 02:36:15;;;;;;;6.30;2.30;;;;;;;14.61;53.59;100555.13;4975571;28;20050;-59
2022/06/14 02:38:54;;;;;;;6.05;2.00;;;;;;;14.63;53.14;100550.63;4992764;28;20450;-58
2022/06/14 02:41:25;;;;;;;6.32;2.15;;;;;;;14.62;53.36;100545.41;4991883;28;20046;-58
2022/06/14 02:44:14;;;;;;;6.30;2.38;;;;;;;14.58;53.46;100539.44;4975379;28;20058;-57
2022/06/14 02:47:03;;;;;;;9.40;2.88;;;;;;;14.59;53.78;100538.50;4992917;28;20129;-57
2022/06/14 02:49:39;;;;;;;9.20;2.03;;;;;;;14.62;53.53;100534.81;4975274;28;20046;-58
2022/06/14 02:52:14;;;;;;;8.30;2.67;;;;;;;14.61;53.74;100533.94;4992671;28;20544;-58
2022/06/14 02:54:54;;;;;;;5.32;2.05;;;;;;;14.61;53.95;100535.75;4975261;28;20050;-57
2022/06/14 02:57:37;;;;;;;11.73;2.40;;;;;;;14.59;54.05;100533.19;4975472;28;20077;-57
2022/06/14 03:00:18;;;;;;;9.65;2.50;;;;;;;14.62;53.73;100545.41;4974865;28;20046;-59
2022/06/14 03:02:51;;;;;;;9.20;2.40;;;;;;;14.61;53.56;100543.72;4992407;28;20050;-57
2022/06/14 03:05:21;;;;;;;;;;;;;;;14.60;52.51;100542.84;4975366;28;20098;-58
2022/06/14 03:08:05;;;;;;;10.00;2.45;;;;;;;14.63;53.11;100550.63;4992450;28;19921;-60
2022/06/14 03:10:39;;;;;;;;;;;;;;;14.61;52.36;100543.72;4992927;28;20050;-58
2022/06/14 03:13:05;;;;;;;10.23;2.33;;;;;;;14.63;52.57;100542.66;4992315;28;20294;-57
2022/06/14 03:15:41;;;;;;;9.85;1.73;;;;;;;14.58;53.73;100550.03;4992236;28;20069;-57
2022/06/14 03:18:30;;;;;;;7.85;2.42;;;;;;;14.54;54.00;100548.53;4992028;28;20124;-58
2022/06/14 03:21:15;;;;;;;8.02;1.95;;;;;;;14.57;53.15;100543.88;4992324;28;20120;-58
2022/06/14 03:23:48;;;;;;;7.97;2.28;;;;;;;14.56;52.98;100555.44;4992075;28;20054;-54
2022/06/14 03:26:25;;;;;;;8.98;2.15;;;;;;;14.55;54.04;100556.34;4992269;28;20062;-57
2022/06/14 03:29:04;;;;;;;5.53;2.10;;;;;;;14.55;53.97;100550.22;4974524;28;20081;-56
2022/06/14 03:31:49;;;;;;;7.45;2.15;;;;;;;14.58;53.50;100558.00;4974602;28;20054;-56
2022/06/14 03:34:25;;;;;;;5.50;1.73;;;;;;;14.55;54.10;100551.06;4991707;28;20046;-56
2022/06/14 03:36:52;;;;;;;8.10;2.00;;;;;;;14.57;53.42;100548.31;4991982;28;20050;-56
2022/06/14 03:39:24;;;;;;;5.45;1.63;;;;;;;14.56;53.91;100543.97;4974235;28;20057;-58
2022/06/14 03:41:53;;;;;;;7.55;2.17;;;;;;;14.55;53.83;100542.28;4974508;28;20054;-58
2022/06/14 03:44:23;;;;;;;11.68;2.80;;;;;;;14.55;54.12;100551.06;4974462;28;20188;-56
2022/06/14 03:47:08;;;;;;;7.97;1.90;;;;;;;14.52;54.64;100553.06;4974326;28;20518;-53
2022/06/14 03:49:38;;;;;;;4.68;1.92;;;;;;;14.57;54.06;100550.97;4991709;28;20046;-54
2022/06/14 03:52:22;;;;;;;6.90;1.92;;;;;;;14.55;55.08;100550.22;4974431;28;20054;-55
2022/06/14 03:55:07;;;;;;;7.38;2.28;;;;;;;14.54;54.77;100545.88;4991511;28;20112;-58
2022/06/14 03:57:39;;;;;;;8.90;2.33;;;;;;;14.58;54.71;100550.03;4974537;28;20050;-59
2022/06/14 04:00:25;;;;;;;9.18;2.42;;;;;;;14.55;54.79;100550.22;4991213;28;20051;-56
2022/06/14 04:03:32;;;;;;;7.43;2.20;;;;;;;14.56;54.79;100546.63;4991538;28;20510;-58
2022/06/14 04:06:08;;;;;;;7.97;2.17;;;;;;;14.58;54.41;100550.88;4991503;28;20046;-55
2022/06/14 04:08:42;;;;;;;9.15;2.28;;;;;;;14.60;54.08;100542.84;4991184;28;20042;-55
2022/06/14 04:11:19;;;;;;;7.45;2.42;;;;;;;14.58;54.41;100539.44;4973855;28;20446;-53
2022/06/14 04:14:00;;;;;;;8.10;2.83;;;;;;;14.59;54.80;100538.50;4991316;28;20058;-58
2022/06/14 04:16:56;;;;;;;7.82;2.80;;;;;;;14.58;54.38;100544.75;4991588;28;20065;-55
2022/06/14 04:20:01;;;;;;;7.15;2.58;;;;;;;14.61;54.66;100541.88;4990867;28;20124;-56
2022/06/14 04:22:53;;;;;;;9.18;2.35;;;;;;;14.61;54.92;100539.25;4990206;28;20085;-55
2022/06/14 04:25:39;;;;;;;5.83;2.33;;;;;;;14.62;55.22;100534.81;4979271;28;20105;-58
2022/06/14 04:28:08;;;;;;;9.40;2.58;;;;;;;14.67;54.34;100530.94;4990151;28;20050;-57
2022/06/14 04:30:52;;;;;;;8.13;2.30;;;;;;;14.65;55.73;100532.81;4990414;28;20058;-55
2022/06/14 04:33:31;;;;;;;6.57;2.20;;;;;;;14.69;55.53;100539.63;4973590;28;20058;-54
2022/06/14 04:36:08;;;;;;;7.28;2.30;;;;;;;14.71;55.77;100529.78;4973704;28;20054;-56
2022/06/14 04:38:46;;;;;;;7.22;2.28;;;;;;;14.77;55.35;100538.34;4973280;28;20509;-56
2022/06/14 04:41:22;;;;;;;10.63;2.40;;;;;;;14.81;55.52;100540.69;4991385;28;20096;-51
2022/06/14 04:43:56;;;;;;;14.68;2.95;;;;;;;14.87;55.48;100544.75;4973743;28;20047;-56
2022/06/14 04:46:31;;;;;;;11.93;3.13;;;;;;;14.93;55.82;100547.03;4973046;28;20057;-55
2022/06/14 04:49:06;;;;;;;9.10;2.20;;;;;;;15.01;55.92;100543.03;4988942;28;20048;-53
2022/06/14 04:51:48;;;;;;;12.52;2.65;;;;;;;15.07;55.82;100547.97;4989672;28;20058;-54
2022/06/14 04:54:40;;;;;;;7.07;2.17;;;;;;;15.16;55.21;100544.72;4971907;28;20502;-57
2022/06/14 04:57:29;;;;;;;6.50;1.90;;;;;;;15.23;55.44;100548.69;4972038;28;20054;-55
2022/06/14 05:00:04;;;;;;;7.50;2.03;;;;;;;15.33;55.35;100551.59;4989146;28;20700;-50
2022/06/14 05:02:47;;;;;;;9.20;2.10;;;;;;;15.36;55.58;100556.69;4990083;28;20076;-52
2022/06/14 05:05:36;;;;;;;10.57;2.55;;;;;;;15.41;55.33;100555.56;4974676;28;20053;-53
2022/06/14 05:08:33;;;;;;;9.48;2.28;;;;;;;15.47;55.14;100557.78;4994587;28;20565;-56
2022/06/14 05:11:08;;;;;;;10.25;2.58;;;;;;;15.54;55.12;100558.25;4962217;28;20046;-52
2022/06/14 05:13:44;;;;;;;6.50;1.92;;;;;;;15.57;55.04;100555.41;4977311;28;20050;-52
2022/06/14 05:16:16;;;;;;;7.18;2.30;;;;;;;15.63;54.78;100562.97;4994178;28;20064;-59
2022/06/14 05:18:58;;;;;;;7.63;2.38;;;;;;;15.65;54.98;100569.03;4994526;28;20054;-54
2022/06/14 05:21:35;;;;;;;5.78;2.10;;;;;;;15.70;54.91;100561.59;4994590;28;20054;-56
2022/06/14 05:24:04;;;;;;;11.13;2.17;;;;;;;15.77;54.53;100562.06;4977015;28;20506;-54
2022/06/14 05:26:58;;;;;;;7.78;1.70;;;;;;;15.80;54.84;100558.34;4976794;28;20105;-55
2022/06/14 05:29:36;;;;;;;9.35;2.08;;;;;;;15.88;54.63;100561.34;4994125;28;20068;-53
2022/06/14 05:33:00;;;;;;;8.27;1.98;;;;;;;15.92;54.34;100560.19;4994247;28;20478;-51
2022/06/14 05:35:37;;;;;;;6.18;1.77;;;;;;;16.01;54.22;100564.91;4914792;29;20060;-54
2022/06/14 05:38:12;;;;;;;7.32;1.83;;;;;;;16.05;54.41;100572.66;4914707;29;20100;-56
2022/06/14 05:40:46;;;;;;;5.00;1.90;;;;;;;16.12;54.04;100564.19;4975027;28;20054;-52
2022/06/14 05:43:28;;;;;;;9.15;2.08;;;;;;;16.15;54.81;100568.47;4993982;28;20038;-49
2022/06/14 05:46:01;;;;;;;5.90;1.40;;;;;;;16.23;54.23;100573.25;4994042;28;20062;-52
2022/06/14 05:48:41;;;;;;;5.43;1.70;;;;;;;16.26;54.22;100573.03;4976686;28;20086;-54
2022/06/14 05:51:11;;;;;;;8.45;1.90;;;;;;;16.33;53.99;100576.13;4976523;28;20081;-57
2022/06/14 05:53:47;;;;;;;10.68;2.00;;;;;;;16.35;53.45;100576.84;4976595;28;20521;-57
2022/06/14 05:56:45;;;;;;;7.95;1.95;;;;;;;16.36;53.07;100579.41;4976575;28;20058;-54
2022/06/14 05:59:21;;;;;;;5.90;1.60;;;;;;;16.44;52.97;100575.41;4987622;28;20054;-52
2022/06/14 06:01:57;;;;;;;7.63;1.80;;;;;;;16.45;53.26;100574.44;4976246;28;20065;-53
2022/06/14 06:04:34;;;;;;;4.85;1.60;;;;;;;16.46;53.16;100576.13;4993826;28;20061;-57
2022/06/14 06:07:08;;;;;;;7.20;2.30;;;;;;;16.49;53.00;100582.06;4975976;28;20054;-53
2022/06/14 06:09:43;;;;;;;9.65;2.00;;;;;;;16.49;52.99;100584.72;4993333;28;20494;-52
2022/06/14 06:12:21;;;;;;;6.05;1.80;;;;;;;16.50;52.77;100580.28;4993507;28;20081;-54
2022/06/14 06:15:02;;;;;;;10.32;2.28;;;;;;;16.51;53.57;100585.50;4976207;28;20109;-52
2022/06/14 06:17:38;;;;;;;7.05;2.13;;;;;;;16.56;53.25;100585.16;4976047;28;20101;-55
2022/06/14 06:20:15;;;;;;;10.60;2.10;;;;;;;16.58;53.18;100585.91;4993267;28;20061;-55
2022/06/14 06:22:52;;;;;;;7.18;2.00;;;;;;;16.60;52.65;100589.31;4975821;28;20487;-54
2022/06/14 06:25:24;;;;;;;6.32;2.00;;;;;;;16.64;53.01;100590.78;4975769;28;20054;-57
2022/06/14 06:27:59;;;;;;;12.68;2.20;;;;;;;16.65;52.29;100589.00;4993274;28;20395;-57
2022/06/14 06:30:38;;;;;;;6.07;1.80;;;;;;;16.70;52.13;100588.69;4992681;28;20093;-53
2022/06/14 06:33:15;;;;;;;5.63;2.00;;;;;;;16.75;52.30;100587.38;4992939;28;20050;-51
2022/06/14 06:36:09;;;;;;;7.82;2.13;;;;;;;16.78;52.65;100597.81;4992926;28;20046;-52
2022/06/14 06:38:42;;;;;;;5.15;1.65;;;;;;;16.92;52.52;100598.66;4992646;28;20050;-56
2022/06/14 06:44:06;;;;;;;8.00;1.60;;;;;;;17.14;52.24;100613.13;4993144;28;20050;-57
2022/06/14 06:46:44;;;;;;;5.00;1.85;;;;;;;17.22;51.49;100610.75;4975773;28;20050;-52
2022/06/14 06:49:14;;;;;;;9.82;1.88;;;;;;;17.30;51.02;100610.22;4992671;28;20060;-52
2022/06/14 06:51:47;;;;;;;7.63;1.85;;;;;;;17.35;50.61;100608.09;4992703;28;20062;-54
2022/06/14 06:54:29;;;;;;;6.28;1.65;;;;;;;17.36;50.44;100614.25;4975069;28;20053;-59
2022/06/14 06:56:59;;;;;;;7.03;1.50;;;;;;;17.41;50.67;100612.09;4975270;28;20226;-56
2022/06/14 06:59:33;;;;;;;11.98;2.20;;;;;;;17.42;50.92;100611.16;4975057;28;20050;-53
2022/06/14 07:02:14;;;;;;;7.43;1.65;;;;;;;17.44;50.74;100610.09;4975117;28;20458;-56
2022/06/14 07:07:37;;;;;;;9.75;1.80;;;;;;;17.56;50.03;100608.34;4992672;28;20058;-51
2022/06/14 07:10:03;;;;;;;7.65;1.77;;;;;;;17.63;50.06;100602.53;4974865;28;20058;-53
2022/06/14 07:12:59;;;;;;;5.50;1.73;;;;;;;17.66;50.37;100610.31;4992201;28;20442;-54
2022/06/14 07:15:55;;;;;;;8.10;1.52;;;;;;;17.64;50.00;100620.25;4975569;28;20120;-55
2022/06/14 07:18:36;;;;;;;9.35;2.50;;;;;;;17.65;49.57;100605.97;4974904;28;20042;-53
2022/06/14 07:21:12;;;;;;;7.03;2.03;;;;;;;17.67;50.14;100610.22;4974967;28;20093;-51
2022/06/14 07:23:48;;;;;;;7.70;1.75;;;;;;;17.68;49.67;100608.41;4974756;28;20105;-51
2022/06/14 07:26:24;;;;;;;6.32;1.67;;;;;;;17.67;49.75;100606.69;4992269;28;20046;-51
2022/06/14 07:29:12;;;;;;;7.20;2.10;;;;;;;17.67;49.53;100610.22;4974410;28;20054;-55
2022/06/14 07:31:55;;;;;;;5.55;1.80;;;;;;;17.66;50.14;100608.50;4991952;28;20483;-55
2022/06/14 07:34:22;;;;;;;7.55;2.10;;;;;;;17.74;49.74;100613.25;4991987;28;20054;-52
2022/06/14 07:37:00;;;;;;;8.25;2.08;;;;;;;17.77;50.13;100610.38;4992000;28;20113;-52
2022/06/14 07:39:45;;;;;;;7.85;2.00;;;;;;;17.81;50.02;100603.00;4991514;28;20062;-56
2022/06/14 07:42:23;;;;;;;7.18;1.88;;;;;;;17.93;49.38;100611.88;4991680;28;20054;-58
2022/06/14 07:44:56;;;;;;;5.80;1.80;;;;;;;18.04;49.29;100601.28;4974608;28;20402;-56
2022/06/14 07:47:41;;;;;;;7.25;2.00;;;;;;;18.13;49.31;100610.41;4991813;28;20462;-57
2022/06/14 07:50:28;;;;;;;6.22;1.95;;;;;;;18.26;49.11;100613.03;4991372;28;20840;-52
2022/06/14 07:53:00;;;;;;;7.07;2.30;;;;;;;18.40;49.31;100608.44;4991882;28;20104;-52
2022/06/14 07:55:34;;;;;;;7.68;1.95;;;;;;;18.49;49.40;100610.41;4991820;28;20058;-54
2022/06/14 07:58:07;;;;;;;6.40;1.58;;;;;;;18.61;48.76;100613.94;4974313;28;20081;-56
2022/06/14 08:03:39;;;;;;;9.45;1.83;;;;;;;18.77;48.09;100610.94;4991253;28;20494;-58
2022/06/14 08:06:22;;;;;;;5.70;1.90;;;;;;;18.80;47.81;100607.19;4974386;28;20054;-58
2022/06/14 08:08:59;;;;;;;8.07;2.25;;;;;;;18.84;47.75;100603.31;4973974;28;20498;-58
2022/06/14 08:11:50;;;;;;;6.90;1.85;;;;;;;18.86;48.25;100606.69;4991227;28;20053;-57
2022/06/14 08:14:27;;;;;;;7.18;2.33;;;;;;;18.91;48.03;100617.00;4991012;28;20061;-52
2022/06/14 08:16:54;;;;;;;6.22;2.13;;;;;;;18.95;47.82;100616.63;4974086;28;20050;-52
2022/06/14 08:19:28;;;;;;;8.90;2.58;;;;;;;18.96;47.78;100613.00;4991133;28;20112;-55
2022/06/14 08:22:02;;;;;;;9.80;2.13;;;;;;;18.98;47.71;100612.88;4973869;28;20058;-56
2022/06/14 08:24:36;;;;;;;7.88;1.98;;;;;;;18.97;47.44;100611.19;4973851;28;20126;-58
2022/06/14 08:27:14;;;;;;;7.90;2.30;;;;;;;18.95;47.24;100607.81;4973986;28;20491;-51
2022/06/14 08:29:53;;;;;;;7.57;2.25;;;;;;;18.95;47.37;100613.97;4973738;28;20414;-51
2022/06/14 08:32:34;;;;;;;8.55;1.92;;;;;;;18.95;46.60;100603.28;4991102;28;20058;-55
2022/06/14 08:35:09;;;;;;;5.63;1.98;;;;;;;19.00;46.99;100602.94;4974695;28;20080;-57
2022/06/14 08:37:42;;;;;;;5.72;1.60;;;;;;;18.99;46.37;100598.59;4991111;28;20074;-55
2022/06/14 08:40:27;;;;;;;;;;;;;;;19.02;47.36;100598.31;4974929;28;20113;-56
2022/06/14 08:43:00;;;;;;;7.30;1.92;;;;;;;19.12;46.89;100603.81;4995318;28;19921;-54
2022/06/14 08:45:57;;;;;;;8.45;1.77;;;;;;;19.13;47.72;100598.34;4977721;28;20050;-56
2022/06/14 08:48:41;;;;;;;3.25;1.45;;;;;;;19.23;46.91;100603.81;4994851;28;20410;-51
2022/06/14 08:51:26;;;;;;;;;;;;;;;19.35;47.82;100601.97;4977904;28;20054;-57
2022/06/14 08:54:14;;;;;;;4.93;1.42;;;;;;;19.55;46.99;100604.00;4994971;28;19976;-56
2022/06/14 08:57:06;;;;;;;5.47;1.60;;;;;;;19.67;48.06;100598.47;4994920;28;20105;-56
2022/06/14 09:00:07;;;;;;;5.95;1.58;;;;;;;19.87;47.08;100606.69;4994732;28;20046;-54
2022/06/14 09:02:49;;;;;;;17.50;2.15;;;;;;;20.11;47.46;100600.28;4994681;28;20054;-59
2022/06/14 09:05:49;;;;;;;9.60;2.22;;;;;;;20.34;46.71;100596.63;4994714;28;20047;-54
2022/06/14 09:08:34;;;;;;;6.78;1.73;;;;;;;20.53;45.96;100599.41;4994570;28;20050;-57
2022/06/14 09:11:38;;;;;;;8.35;1.67;;;;;;;20.61;45.27;100597.91;4994533;28;20109;-59
2022/06/14 09:14:20;;;;;;;5.63;1.38;;;;;;;20.67;44.98;100603.59;4995075;28;20058;-56
2022/06/14 09:16:49;;;;;;;6.13;1.65;;;;;;;20.68;45.08;100599.91;4994620;28;20058;-56
2022/06/14 09:19:24;;;;;;;7.97;1.60;;;;;;;20.63;44.31;100601.31;4976916;28;20058;-56
2022/06/14 09:22:05;;;;;;;9.00;2.03;;;;;;;20.62;44.88;100600.47;4994454;28;20058;-57
2022/06/14 09:24:52;;;;;;;6.43;1.50;;;;;;;20.56;44.46;100601.84;4994552;28;20042;-58
2022/06/14 09:27:34;;;;;;;8.45;1.58;;;;;;;20.55;44.62;100593.94;4994426;28;20058;-58
2022/06/14 09:30:31;;;;;;;5.22;1.67;;;;;;;20.55;43.27;100593.94;4994209;28;20058;-60
2022/06/14 09:33:09;;;;;;;5.90;1.85;;;;;;;20.60;44.02;100599.75;4976927;28;20117;-58
2022/06/14 09:36:14;;;;;;;4.13;1.42;;;;;;;20.65;44.09;100594.00;4994339;28;20050;-55
2022/06/14 09:39:19;;;;;;;5.85;1.63;;;;;;;20.80;44.30;100598.03;4993819;28;20544;-58
2022/06/14 09:42:18;;;;;;;4.25;1.48;;;;;;;20.87;43.15;100595.69;4914544;29;20052;-58
2022/06/14 09:44:48;;;;;;;5.28;1.52;;;;;;;20.99;43.65;100591.09;4914642;29;20055;-54
2022/06/14 09:47:26;;;;;;;5.88;1.48;;;;;;;21.01;42.70;100598.97;4971482;28;20080;-59
2022/06/14 09:50:20;;;;;;;10.32;2.08;;;;;;;21.05;42.74;100592.38;4993694;28;20108;-59
2022/06/14 09:53:06;;;;;;;7.18;2.08;;;;;;;21.06;42.77;100597.59;4993566;28;20054;-57
2022/06/14 09:55:55;;;;;;;6.90;2.00;;;;;;;21.11;43.16;100599.03;4976361;28;20565;-59
2022/06/14 09:59:00;;;;;;;6.63;1.80;;;;;;;21.13;43.78;100600.56;4993583;28;20056;-54
2022/06/14 10:01:36;;;;;;;6.25;1.90;;;;;;;21.20;42.86;100600.88;4976525;28;20054;-56
2022/06/14 10:04:06;;;;;;;6.25;1.92;;;;;;;21.25;43.31;100600.44;4993635;28;20057;-59
2022/06/14 10:06:45;;;;;;;6.90;2.10;;;;;;;21.30;43.55;100609.78;4993856;28;20077;-57
2022/06/14 10:09:15;;;;;;;7.45;1.95;;;;;;;21.33;43.66;100600.63;4993309;28;20047;-57
2022/06/14 10:11:56;;;;;;;6.88;2.08;;;;;;;21.41;44.45;100608.81;4976249;28;20498;-58
2022/06/14 10:14:31;;;;;;;5.90;1.95;;;;;;;21.58;44.61;100603.78;4993423;28;20054;-58
2022/06/14 10:17:16;;;;;;;8.25;2.20;;;;;;;21.78;45.10;100603.81;4993692;28;20050;-59
2022/06/14 10:20:02;;;;;;;6.55;1.70;;;;;;;22.02;44.82;100591.84;4993136;28;20062;-58
2022/06/14 10:22:46;;;;;;;6.80;1.98;;;;;;;22.25;43.06;100603.09;4993279;28;20108;-55
2022/06/14 10:25:18;;;;;;;8.43;2.38;;;;;;;22.48;42.36;100600.94;4993439;28;20050;-57
2022/06/14 10:28:11;;;;;;;6.53;2.10;;;;;;;22.62;41.97;100598.81;4993438;28;20057;-54
2022/06/14 10:31:05;;;;;;;4.10;1.55;;;;;;;22.73;41.33;100595.94;4992953;28;20058;-55
2022/06/14 10:33:54;;;;;;;6.80;1.80;;;;;;;22.79;41.18;100597.19;4993128;28;20058;-55
2022/06/14 10:36:47;;;;;;;4.60;1.75;;;;;;;22.81;40.97;100589.00;4993067;28;20054;-59
2022/06/14 10:39:21;;;;;;;4.78;1.60;;;;;;;22.88;40.94;100598.97;4975132;28;20069;-61
2022/06/14 10:41:57;;;;;;;7.50;1.75;;;;;;;22.87;39.71;100589.25;4975494;28;20384;-59
2022/06/14 10:44:52;;;;;;;6.20;2.00;;;;;;;22.90;39.11;100597.00;4991851;28;20051;-58
2022/06/14 10:47:28;;;;;;;5.47;1.85;;;;;;;22.89;40.18;100594.47;4992813;28;20054;-58
2022/06/14 10:50:40;;;;;;;6.00;2.22;;;;;;;22.93;40.83;100589.66;4992606;28;20050;-58
2022/06/14 10:53:33;;;;;;;4.55;1.75;;;;;;;23.14;40.72;100582.19;4992321;28;20458;-58
2022/06/14 10:56:29;;;;;;;4.82;1.60;;;;;;;23.36;40.01;100582.78;4991602;28;20116;-59
2022/06/14 10:59:34;;;;;;;4.80;1.65;;;;;;;23.46;40.45;100582.75;4980663;28;20514;-59
2022/06/14 11:02:43;;;;;;;4.25;1.80;;;;;;;23.54;40.29;100577.44;4912655;29;20139;-56
2022/06/14 11:05:33;;;;;;;7.03;1.65;;;;;;;23.75;40.97;100575.44;4992323;28;20136;-59
2022/06/14 11:08:37;;;;;;;4.43;1.50;;;;;;;24.16;41.47;100569.59;4975190;28;20301;-58
2022/06/14 11:11:18;;;;;;;4.40;1.70;;;;;;;24.73;40.46;100565.56;4992408;28;20042;-59
2022/06/14 11:13:54;;;;;;;4.47;1.90;;;;;;;25.34;40.37;100567.34;4992264;28;20108;-59
2022/06/14 11:16:49;;;;;;;5.78;1.73;;;;;;;25.98;41.14;100555.09;4992336;28;20050;-61
2022/06/14 11:19:40;;;;;;;4.97;1.90;;;;;;;26.64;40.60;100557.69;4992196;28;20086;-56
2022/06/14 11:22:20;;;;;;;4.32;1.98;;;;;;;27.29;39.32;100552.16;4992317;28;20046;-59
2022/06/14 11:25:02;;;;;;;5.93;1.67;;;;;;;27.80;36.89;100556.22;4992190;28;20054;-59
2022/06/14 11:27:47;;;;;;;;;;;;;;;28.08;39.23;100552.09;4992633;28;20071;-59
2022/06/14 11:30:51;;;;;;;4.72;1.52;;;;;;;28.18;35.93;100552.66;4991979;28;20374;-59
2022/06/14 11:33:21;;;;;;;7.22;1.70;;;;;;;28.08;34.37;100546.69;4991718;28;20051;-58
2022/06/14 11:36:06;;;;;;;4.80;1.90;;;;;;;27.94;34.89;100553.75;4991870;28;20147;-57
2022/06/14 11:39:01;;;;;;;3.90;1.67;;;;;;;27.77;35.75;100547.66;4991656;28;20085;-56
2022/06/14 11:41:34;;;;;;;6.97;1.75;;;;;;;27.89;35.41;100543.50;4974657;28;20050;-57
2022/06/14 11:44:00;;;;;;;;;;;;;;;28.03;38.14;100532.88;4974897;28;20050;-58
2022/06/14 11:46:40;;;;;;;7.15;1.90;;;;;;;28.35;35.57;100545.25;4991763;28;19977;-59
2022/06/14 11:49:24;;;;;;;5.65;1.85;;;;;;;28.65;35.00;100533.56;4974023;28;20061;-60
2022/06/14 11:52:36;;;;;;;5.13;1.90;;;;;;;28.98;36.15;100535.88;4991855;28;20046;-60
2022/06/14 11:55:21;;;;;;;5.78;1.90;;;;;;;29.39;34.47;100537.16;4991865;28;20076;-58
2022/06/14 11:57:55;;;;;;;3.78;1.60;;;;;;;29.69;34.00;100530.78;4991740;28;20491;-60
2022/06/14 12:00:42;;;;;;;4.85;1.52;;;;;;;29.96;34.85;100527.41;4991328;28;20058;-60
2022/06/14 12:03:49;;;;;;;5.65;1.55;;;;;;;30.31;34.46;100519.31;4991218;28;20089;-57
2022/06/14 12:06:38;;;;;;;7.28;1.65;;;;;;;30.54;32.71;100529.91;4991505;28;20061;-57
2022/06/14 12:09:34;;;;;;;3.70;1.40;;;;;;;30.55;32.48;100520.72;4991308;28;20050;-59
2022/06/14 12:12:10;;;;;;;3.83;1.50;;;;;;;30.49;31.28;100531.56;4991565;28;20050;-59
2022/06/14 12:15:00;;;;;;;4.30;1.70;;;;;;;30.36;32.00;100519.59;4991128;28;20097;-60
2022/06/14 12:17:47;;;;;;;4.43;1.77;;;;;;;30.35;31.12;100526.03;4974163;28;20054;-55
2022/06/14 12:20:17;;;;;;;4.97;1.95;;;;;;;30.44;30.42;100521.28;4991117;28;20478;-58
2022/06/14 12:23:09;;;;;;;5.00;1.80;;;;;;;30.59;32.01;100512.16;4974945;28;20057;-58
2022/06/14 12:28:47;;;;;;;3.88;1.45;;;;;;;31.12;32.06;100502.53;4991219;28;20074;-59
2022/06/14 12:31:27;;;;;;;5.95;1.48;;;;;;;31.40;31.37;100501.56;4973783;28;20081;-60
2022/06/14 12:34:10;;;;;;;6.65;1.75;;;;;;;31.66;30.49;100498.00;4991104;28;20084;-60
2022/06/14 12:36:56;;;;;;;3.60;1.48;;;;;;;31.91;29.46;100496.56;4991400;28;20495;-60
2022/06/14 12:39:54;;;;;;;5.80;1.67;;;;;;;32.05;30.33;100494.66;4973568;28;20067;-59
2022/06/14 12:42:36;;;;;;;4.90;1.55;;;;;;;32.14;28.59;100492.53;4991635;28;20113;-59